sensor_id;sensor_type;location;lat;lon;timestamp;P1;durP1;ratioP1;P2;durP2;ratioP2
54193;SDS011;40102;50.906;6.972;2023-04-01T00:00:27;0.82;;;0.20;;
54193;SDS011;40102;50.906;6.972;2023-04-01T00:02:53;1.08;;;0.20;;
54193;SDS011;40102;50.906;6.972;2023-04-01T00:05:18;0.40;;;0.30;;
54193;SDS011;40102;50.906;6.972;2023-04-01T00:07:44;0.80;;;0.65;;
54193;SDS011;40102;50.906;6.972;2023-04-01T00:10:11;0.35;;;0.20;;
54193;SDS011;40102;50.906;6.972;2023-04-01T00:12:38;0.20;;;0.20;;
54193;SDS011;40102;50.906;6.972;2023-04-01T00:15:05;0.65;;;0.20;;
54193;SDS011;40102;50.906;6.972;2023-04-01T00:17:32;1.13;;;0.20;;
54193;SDS011;40102;50.906;6.972;2023-04-01T00:19:57;1.33;;;0.30;;
54193;SDS011;40102;50.906;6.972;2023-04-01T00:22:23;0.32;;;0.10;;
54193;SDS011;40102;50.906;6.972;2023-04-01T00:24:49;2.33;;;0.77;;
54193;SDS011;40102;50.906;6.972;2023-04-01T00:27:15;0.85;;;0.20;;
54193;SDS011;40102;50.906;6.972;2023-04-01T00:29:44;0.73;;;0.32;;
54193;SDS011;40102;50.906;6.972;2023-04-01T00:32:10;0.50;;;0.20;;
54193;SDS011;40102;50.906;6.972;2023-04-01T00:34:36;0.82;;;0.28;;
54193;SDS011;40102;50.906;6.972;2023-04-01T00:37:01;0.75;;;0.30;;
54193;SDS011;40102;50.906;6.972;2023-04-01T00:39:30;1.98;;;0.20;;
54193;SDS011;40102;50.906;6.972;2023-04-01T00:41:57;0.60;;;0.20;;
54193;SDS011;40102;50.906;6.972;2023-04-01T00:44:24;1.38;;;0.20;;
54193;SDS011;40102;50.906;6.972;2023-04-01T00:46:51;1.80;;;0.30;;
54193;SDS011;40102;50.906;6.972;2023-04-01T00:49:21;0.75;;;0.17;;
54193;SDS011;40102;50.906;6.972;2023-04-01T00:54:18;0.95;;;0.10;;
54193;SDS011;40102;50.906;6.972;2023-04-01T00:56:50;1.60;;;0.30;;
54193;SDS011;40102;50.906;6.972;2023-04-01T00:59:23;0.65;;;0.20;;
54193;SDS011;40102;50.906;6.972;2023-04-01T01:01:50;0.40;;;0.20;;
54193;SDS011;40102;50.906;6.972;2023-04-01T01:15:36;0.80;;;0.40;;
54193;SDS011;40102;50.906;6.972;2023-04-01T01:34:31;1.35;;;0.20;;
54193;SDS011;40102;50.906;6.972;2023-04-01T01:37:01;1.75;;;0.20;;
54193;SDS011;40102;50.906;6.972;2023-04-01T01:39:33;0.90;;;0.10;;
54193;SDS011;40102;50.906;6.972;2023-04-01T01:42:02;1.45;;;0.17;;
54193;SDS011;40102;50.906;6.972;2023-04-01T01:44:31;0.30;;;0.10;;
54193;SDS011;40102;50.906;6.972;2023-04-01T01:46:58;0.38;;;0.10;;
54193;SDS011;40102;50.906;6.972;2023-04-01T01:49:25;1.17;;;0.30;;
54193;SDS011;40102;50.906;6.972;2023-04-01T01:51:52;0.63;;;0.10;;
54193;SDS011;40102;50.906;6.972;2023-04-01T01:54:18;0.28;;;0.10;;
54193;SDS011;40102;50.906;6.972;2023-04-01T01:56:44;0.10;;;0.10;;
54193;SDS011;40102;50.906;6.972;2023-04-01T01:59:13;0.40;;;0.20;;
54193;SDS011;40102;50.906;6.972;2023-04-01T02:01:45;0.30;;;0.10;;
54193;SDS011;40102;50.906;6.972;2023-04-01T02:04:14;0.90;;;0.17;;
54193;SDS011;40102;50.906;6.972;2023-04-01T02:06:53;0.40;;;0.13;;
54193;SDS011;40102;50.906;6.972;2023-04-01T02:09:25;1.08;;;0.20;;
54193;SDS011;40102;50.906;6.972;2023-04-01T02:11:52;0.40;;;0.13;;
54193;SDS011;40102;50.906;6.972;2023-04-01T02:14:23;0.40;;;0.15;;
54193;SDS011;40102;50.906;6.972;2023-04-01T02:17:25;0.13;;;0.08;;
54193;SDS011;40102;50.906;6.972;2023-04-01T02:19:49;1.00;;;0.10;;
54193;SDS011;40102;50.906;6.972;2023-04-01T02:22:19;0.80;;;0.15;;
54193;SDS011;40102;50.906;6.972;2023-04-01T02:24:49;0.10;;;0.10;;
54193;SDS011;40102;50.906;6.972;2023-04-01T02:27:17;0.10;;;0.10;;
54193;SDS011;40102;50.906;6.972;2023-04-01T02:29:42;0.30;;;0.25;;
54193;SDS011;40102;50.906;6.972;2023-04-01T02:32:08;0.35;;;0.10;;
54193;SDS011;40102;50.906;6.972;2023-04-01T02:34:34;0.00;;;0.00;;
54193;SDS011;40102;50.906;6.972;2023-04-01T02:37:01;0.35;;;0.00;;
54193;SDS011;40102;50.906;6.972;2023-04-01T02:39:26;0.75;;;0.10;;
54193;SDS011;40102;50.906;6.972;2023-04-01T02:41:52;0.50;;;0.10;;
54193;SDS011;40102;50.906;6.972;2023-04-01T02:44:18;1.17;;;0.15;;
54193;SDS011;40102;50.906;6.972;2023-04-01T02:46:43;1.75;;;0.10;;
54193;SDS011;40102;50.906;6.972;2023-04-01T02:49:09;0.57;;;0.20;;
54193;SDS011;40102;50.906;6.972;2023-04-01T02:51:34;0.30;;;0.10;;
54193;SDS011;40102;50.906;6.972;2023-04-01T02:54:00;0.63;;;0.20;;
54193;SDS011;40102;50.906;6.972;2023-04-01T02:56:25;1.73;;;0.20;;
54193;SDS011;40102;50.906;6.972;2023-04-01T02:58:51;0.40;;;0.40;;
54193;SDS011;40102;50.906;6.972;2023-04-01T03:01:17;0.85;;;0.40;;
54193;SDS011;40102;50.906;6.972;2023-04-01T03:03:43;0.50;;;0.30;;
54193;SDS011;40102;50.906;6.972;2023-04-01T03:06:09;3.13;;;0.40;;
54193;SDS011;40102;50.906;6.972;2023-04-01T03:08:36;1.50;;;0.57;;
54193;SDS011;40102;50.906;6.972;2023-04-01T03:11:02;0.70;;;0.40;;
54193;SDS011;40102;50.906;6.972;2023-04-01T03:13:28;1.73;;;0.60;;
54193;SDS011;40102;50.906;6.972;2023-04-01T03:15:53;0.70;;;0.38;;
54193;SDS011;40102;50.906;6.972;2023-04-01T03:18:19;1.00;;;0.38;;
54193;SDS011;40102;50.906;6.972;2023-04-01T03:20:45;2.55;;;0.50;;
54193;SDS011;40102;50.906;6.972;2023-04-01T03:23:10;1.02;;;0.40;;
54193;SDS011;40102;50.906;6.972;2023-04-01T03:25:36;1.92;;;0.45;;
54193;SDS011;40102;50.906;6.972;2023-04-01T03:28:02;1.55;;;0.50;;
54193;SDS011;40102;50.906;6.972;2023-04-01T03:30:27;2.05;;;0.40;;
54193;SDS011;40102;50.906;6.972;2023-04-01T03:32:56;1.23;;;0.50;;
54193;SDS011;40102;50.906;6.972;2023-04-01T03:35:21;0.75;;;0.30;;
54193;SDS011;40102;50.906;6.972;2023-04-01T03:37:50;0.50;;;0.20;;
54193;SDS011;40102;50.906;6.972;2023-04-01T03:40:16;3.50;;;0.17;;
54193;SDS011;40102;50.906;6.972;2023-04-01T03:42:42;0.93;;;0.20;;
54193;SDS011;40102;50.906;6.972;2023-04-01T03:45:07;0.47;;;0.20;;
54193;SDS011;40102;50.906;6.972;2023-04-01T03:47:33;0.20;;;0.10;;
54193;SDS011;40102;50.906;6.972;2023-04-01T03:49:59;0.50;;;0.20;;
54193;SDS011;40102;50.906;6.972;2023-04-01T03:52:24;0.70;;;0.10;;
54193;SDS011;40102;50.906;6.972;2023-04-01T03:54:50;0.10;;;0.10;;
54193;SDS011;40102;50.906;6.972;2023-04-01T03:57:15;0.60;;;0.20;;
54193;SDS011;40102;50.906;6.972;2023-04-01T03:59:40;0.45;;;0.10;;
54193;SDS011;40102;50.906;6.972;2023-04-01T04:02:06;0.03;;;0.00;;
54193;SDS011;40102;50.906;6.972;2023-04-01T04:04:31;0.10;;;0.10;;
54193;SDS011;40102;50.906;6.972;2023-04-01T04:06:59;0.10;;;0.10;;
54193;SDS011;40102;50.906;6.972;2023-04-01T04:09:25;0.00;;;0.00;;
54193;SDS011;40102;50.906;6.972;2023-04-01T04:11:50;0.10;;;0.05;;
54193;SDS011;40102;50.906;6.972;2023-04-01T04:14:16;0.17;;;0.10;;
54193;SDS011;40102;50.906;6.972;2023-04-01T04:16:41;0.30;;;0.10;;
54193;SDS011;40102;50.906;6.972;2023-04-01T04:19:06;0.25;;;0.10;;
54193;SDS011;40102;50.906;6.972;2023-04-01T04:21:32;0.20;;;0.10;;
54193;SDS011;40102;50.906;6.972;2023-04-01T04:24:01;0.10;;;0.00;;
54193;SDS011;40102;50.906;6.972;2023-04-01T04:26:26;0.47;;;0.10;;
54193;SDS011;40102;50.906;6.972;2023-04-01T04:28:53;1.85;;;0.20;;
54193;SDS011;40102;50.906;6.972;2023-04-01T04:31:20;0.63;;;0.10;;
54193;SDS011;40102;50.906;6.972;2023-04-01T04:33:46;0.85;;;0.43;;
54193;SDS011;40102;50.906;6.972;2023-04-01T04:36:13;0.13;;;0.00;;
54193;SDS011;40102;50.906;6.972;2023-04-01T04:38:38;0.13;;;0.00;;
54193;SDS011;40102;50.906;6.972;2023-04-01T04:41:07;0.40;;;0.10;;
54193;SDS011;40102;50.906;6.972;2023-04-01T04:43:34;0.08;;;0.08;;
54193;SDS011;40102;50.906;6.972;2023-04-01T04:46:03;0.30;;;0.10;;
54193;SDS011;40102;50.906;6.972;2023-04-01T04:48:30;0.15;;;0.10;;
54193;SDS011;40102;50.906;6.972;2023-04-01T04:50:56;0.20;;;0.10;;
54193;SDS011;40102;50.906;6.972;2023-04-01T04:53:21;0.17;;;0.10;;
54193;SDS011;40102;50.906;6.972;2023-04-01T04:55:47;0.20;;;0.05;;
54193;SDS011;40102;50.906;6.972;2023-04-01T04:58:14;0.10;;;0.10;;
54193;SDS011;40102;50.906;6.972;2023-04-01T05:00:40;0.32;;;0.15;;
54193;SDS011;40102;50.906;6.972;2023-04-01T05:03:06;1.13;;;0.15;;
54193;SDS011;40102;50.906;6.972;2023-04-01T05:05:32;0.57;;;0.03;;
54193;SDS011;40102;50.906;6.972;2023-04-01T05:07:58;0.00;;;0.00;;
54193;SDS011;40102;50.906;6.972;2023-04-01T05:10:24;0.10;;;0.00;;
54193;SDS011;40102;50.906;6.972;2023-04-01T05:12:49;0.35;;;0.10;;
54193;SDS011;40102;50.906;6.972;2023-04-01T05:15:15;0.10;;;0.10;;
54193;SDS011;40102;50.906;6.972;2023-04-01T05:17:40;0.30;;;0.10;;
54193;SDS011;40102;50.906;6.972;2023-04-01T05:20:06;0.17;;;0.10;;
54193;SDS011;40102;50.906;6.972;2023-04-01T05:22:32;1.10;;;0.10;;
54193;SDS011;40102;50.906;6.972;2023-04-01T05:24:57;0.10;;;0.10;;
54193;SDS011;40102;50.906;6.972;2023-04-01T05:27:23;0.43;;;0.30;;
54193;SDS011;40102;50.906;6.972;2023-04-01T05:29:48;0.68;;;0.32;;
54193;SDS011;40102;50.906;6.972;2023-04-01T05:32:14;0.70;;;0.30;;
54193;SDS011;40102;50.906;6.972;2023-04-01T05:34:39;0.82;;;0.40;;
54193;SDS011;40102;50.906;6.972;2023-04-01T05:37:05;2.05;;;0.28;;
54193;SDS011;40102;50.906;6.972;2023-04-01T05:39:35;0.63;;;0.40;;
54193;SDS011;40102;50.906;6.972;2023-04-01T05:42:01;2.90;;;0.40;;
54193;SDS011;40102;50.906;6.972;2023-04-01T05:44:26;0.60;;;0.50;;
54193;SDS011;40102;50.906;6.972;2023-04-01T05:46:52;1.98;;;0.50;;
54193;SDS011;40102;50.906;6.972;2023-04-01T05:49:17;0.68;;;0.38;;
54193;SDS011;40102;50.906;6.972;2023-04-01T05:51:42;0.80;;;0.40;;
54193;SDS011;40102;50.906;6.972;2023-04-01T05:54:08;3.63;;;0.57;;
54193;SDS011;40102;50.906;6.972;2023-04-01T05:56:33;1.13;;;0.45;;
54193;SDS011;40102;50.906;6.972;2023-04-01T05:58:59;0.93;;;0.40;;
54193;SDS011;40102;50.906;6.972;2023-04-01T06:01:24;0.45;;;0.40;;
54193;SDS011;40102;50.906;6.972;2023-04-01T06:03:50;0.60;;;0.30;;
54193;SDS011;40102;50.906;6.972;2023-04-01T06:06:16;1.25;;;0.60;;
54193;SDS011;40102;50.906;6.972;2023-04-01T06:08:53;1.95;;;0.50;;
54193;SDS011;40102;50.906;6.972;2023-04-01T06:19:17;1.85;;;0.57;;
54193;SDS011;40102;50.906;6.972;2023-04-01T06:39:03;3.40;;;1.23;;
54193;SDS011;40102;50.906;6.972;2023-04-01T06:44:28;4.53;;;1.00;;
54193;SDS011;40102;50.906;6.972;2023-04-01T06:55:17;2.60;;;0.70;;
54193;SDS011;40102;50.906;6.972;2023-04-01T06:57:49;2.17;;;0.80;;
54193;SDS011;40102;50.906;6.972;2023-04-01T07:00:29;1.40;;;0.90;;
54193;SDS011;40102;50.906;6.972;2023-04-01T07:03:07;0.80;;;0.80;;
54193;SDS011;40102;50.906;6.972;2023-04-01T07:05:45;2.95;;;1.00;;
54193;SDS011;40102;50.906;6.972;2023-04-01T07:08:16;3.38;;;1.10;;
54193;SDS011;40102;50.906;6.972;2023-04-01T07:10:50;1.40;;;0.90;;
54193;SDS011;40102;50.906;6.972;2023-04-01T07:24:15;1.48;;;0.80;;
54193;SDS011;40102;50.906;6.972;2023-04-01T07:26:46;0.82;;;0.60;;
54193;SDS011;40102;50.906;6.972;2023-04-01T07:29:14;1.48;;;0.70;;
54193;SDS011;40102;50.906;6.972;2023-04-01T07:37:00;0.75;;;0.50;;
54193;SDS011;40102;50.906;6.972;2023-04-01T07:45:29;0.60;;;0.52;;
54193;SDS011;40102;50.906;6.972;2023-04-01T07:51:17;0.77;;;0.60;;
54193;SDS011;40102;50.906;6.972;2023-04-01T07:53:57;0.73;;;0.57;;
54193;SDS011;40102;50.906;6.972;2023-04-01T08:07:24;0.50;;;0.50;;
54193;SDS011;40102;50.906;6.972;2023-04-01T08:09:59;1.02;;;0.50;;
54193;SDS011;40102;50.906;6.972;2023-04-01T08:15:13;0.47;;;0.35;;
54193;SDS011;40102;50.906;6.972;2023-04-01T08:18:15;0.60;;;0.50;;
54193;SDS011;40102;50.906;6.972;2023-04-01T08:20:52;0.55;;;0.40;;
54193;SDS011;40102;50.906;6.972;2023-04-01T08:23:24;0.43;;;0.40;;
54193;SDS011;40102;50.906;6.972;2023-04-01T08:25:53;0.68;;;0.40;;
54193;SDS011;40102;50.906;6.972;2023-04-01T08:28:33;1.25;;;0.47;;
54193;SDS011;40102;50.906;6.972;2023-04-01T08:31:05;0.47;;;0.47;;
54193;SDS011;40102;50.906;6.972;2023-04-01T08:33:47;1.05;;;0.50;;
54193;SDS011;40102;50.906;6.972;2023-04-01T08:36:15;0.85;;;0.50;;
54193;SDS011;40102;50.906;6.972;2023-04-01T08:43:55;0.70;;;0.50;;
54193;SDS011;40102;50.906;6.972;2023-04-01T08:52:18;0.50;;;0.50;;
54193;SDS011;40102;50.906;6.972;2023-04-01T08:58:22;0.60;;;0.50;;
54193;SDS011;40102;50.906;6.972;2023-04-01T09:00:57;0.73;;;0.50;;
54193;SDS011;40102;50.906;6.972;2023-04-01T09:09:16;0.93;;;0.40;;
54193;SDS011;40102;50.906;6.972;2023-04-01T09:34:44;4.32;;;0.50;;
54193;SDS011;40102;50.906;6.972;2023-04-01T09:40:14;1.02;;;0.40;;
54193;SDS011;40102;50.906;6.972;2023-04-01T09:46:00;1.27;;;0.50;;
54193;SDS011;40102;50.906;6.972;2023-04-01T09:59:57;1.35;;;0.30;;
54193;SDS011;40102;50.906;6.972;2023-04-01T10:07:55;0.45;;;0.40;;
54193;SDS011;40102;50.906;6.972;2023-04-01T10:18:41;0.60;;;0.50;;
54193;SDS011;40102;50.906;6.972;2023-04-01T10:35:42;0.50;;;0.50;;
54193;SDS011;40102;50.906;6.972;2023-04-01T10:50:34;0.65;;;0.65;;
54193;SDS011;40102;50.906;6.972;2023-04-01T10:53:30;0.73;;;0.57;;
54193;SDS011;40102;50.906;6.972;2023-04-01T11:04:35;0.60;;;0.60;;
54193;SDS011;40102;50.906;6.972;2023-04-01T11:18:31;0.93;;;0.60;;
54193;SDS011;40102;50.906;6.972;2023-04-01T11:30:02;0.52;;;0.47;;
54193;SDS011;40102;50.906;6.972;2023-04-01T11:38:26;0.52;;;0.50;;
54193;SDS011;40102;50.906;6.972;2023-04-01T12:03:01;0.80;;;0.80;;
54193;SDS011;40102;50.906;6.972;2023-04-01T12:14:21;2.28;;;0.65;;
54193;SDS011;40102;50.906;6.972;2023-04-01T12:17:07;0.77;;;0.60;;
54193;SDS011;40102;50.906;6.972;2023-04-01T12:22:31;0.70;;;0.70;;
54193;SDS011;40102;50.906;6.972;2023-04-01T12:25:20;1.52;;;0.60;;
54193;SDS011;40102;50.906;6.972;2023-04-01T12:33:25;0.47;;;0.43;;
54193;SDS011;40102;50.906;6.972;2023-04-01T12:38:51;0.50;;;0.50;;
54193;SDS011;40102;50.906;6.972;2023-04-01T12:41:53;0.40;;;0.40;;
54193;SDS011;40102;50.906;6.972;2023-04-01T12:44:34;0.50;;;0.50;;
54193;SDS011;40102;50.906;6.972;2023-04-01T12:55:49;0.50;;;0.50;;
54193;SDS011;40102;50.906;6.972;2023-04-01T13:06:27;0.50;;;0.50;;
54193;SDS011;40102;50.906;6.972;2023-04-01T13:09:07;0.82;;;0.70;;
54193;SDS011;40102;50.906;6.972;2023-04-01T13:14:44;1.02;;;0.80;;
54193;SDS011;40102;50.906;6.972;2023-04-01T13:19:40;1.02;;;0.93;;
54193;SDS011;40102;50.906;6.972;2023-04-01T13:22:20;1.00;;;0.80;;
54193;SDS011;40102;50.906;6.972;2023-04-01T13:24:51;0.82;;;0.82;;
54193;SDS011;40102;50.906;6.972;2023-04-01T13:27:56;1.33;;;0.80;;
54193;SDS011;40102;50.906;6.972;2023-04-01T13:30:49;1.58;;;1.00;;
54193;SDS011;40102;50.906;6.972;2023-04-01T13:33:27;0.80;;;0.77;;
54193;SDS011;40102;50.906;6.972;2023-04-01T13:36:16;0.65;;;0.60;;
54193;SDS011;40102;50.906;6.972;2023-04-01T13:44:59;1.58;;;0.80;;
54193;SDS011;40102;50.906;6.972;2023-04-01T13:50:23;1.77;;;1.55;;
54193;SDS011;40102;50.906;6.972;2023-04-01T14:00:54;1.25;;;1.15;;
54193;SDS011;40102;50.906;6.972;2023-04-01T14:12:19;1.17;;;0.90;;
54193;SDS011;40102;50.906;6.972;2023-04-01T14:20:41;2.17;;;1.50;;
54193;SDS011;40102;50.906;6.972;2023-04-01T14:23:16;1.83;;;1.30;;
54193;SDS011;40102;50.906;6.972;2023-04-01T14:25:54;2.22;;;1.27;;
54193;SDS011;40102;50.906;6.972;2023-04-01T14:50:23;1.05;;;0.95;;
54193;SDS011;40102;50.906;6.972;2023-04-01T15:00:47;1.25;;;0.95;;
54193;SDS011;40102;50.906;6.972;2023-04-01T15:28:42;1.55;;;1.00;;
54193;SDS011;40102;50.906;6.972;2023-04-01T16:15:52;2.10;;;1.48;;
54193;SDS011;40102;50.906;6.972;2023-04-01T16:21:14;3.80;;;1.80;;
54193;SDS011;40102;50.906;6.972;2023-04-01T16:23:53;1.58;;;1.40;;
54193;SDS011;40102;50.906;6.972;2023-04-01T16:26:27;4.28;;;1.95;;
54193;SDS011;40102;50.906;6.972;2023-04-01T16:37:09;2.00;;;1.77;;
54193;SDS011;40102;50.906;6.972;2023-04-01T16:39:49;1.83;;;1.50;;
54193;SDS011;40102;50.906;6.972;2023-04-01T16:48:35;2.28;;;1.38;;
54193;SDS011;40102;50.906;6.972;2023-04-01T16:51:19;1.80;;;1.40;;
54193;SDS011;40102;50.906;6.972;2023-04-01T16:53:47;2.03;;;1.48;;
54193;SDS011;40102;50.906;6.972;2023-04-01T16:56:21;2.33;;;1.70;;
54193;SDS011;40102;50.906;6.972;2023-04-01T17:04:07;1.77;;;1.40;;
54193;SDS011;40102;50.906;6.972;2023-04-01T17:06:59;2.00;;;1.35;;
54193;SDS011;40102;50.906;6.972;2023-04-01T17:09:51;1.98;;;1.20;;
54193;SDS011;40102;50.906;6.972;2023-04-01T17:15:46;1.42;;;1.10;;
54193;SDS011;40102;50.906;6.972;2023-04-01T17:23:51;1.65;;;1.38;;
54193;SDS011;40102;50.906;6.972;2023-04-01T17:34:30;2.80;;;1.70;;
54193;SDS011;40102;50.906;6.972;2023-04-01T17:37:22;2.80;;;1.50;;
54193;SDS011;40102;50.906;6.972;2023-04-01T17:52:21;1.55;;;1.30;;
54193;SDS011;40102;50.906;6.972;2023-04-01T18:06:12;1.98;;;1.65;;
54193;SDS011;40102;50.906;6.972;2023-04-01T18:25:48;1.90;;;1.58;;
54193;SDS011;40102;50.906;6.972;2023-04-01T18:30:57;3.30;;;2.53;;
54193;SDS011;40102;50.906;6.972;2023-04-01T18:33:31;3.63;;;2.15;;
54193;SDS011;40102;50.906;6.972;2023-04-01T18:36:19;2.22;;;1.65;;
54193;SDS011;40102;50.906;6.972;2023-04-01T18:55:47;2.70;;;1.60;;
54193;SDS011;40102;50.906;6.972;2023-04-01T19:01:16;2.20;;;1.90;;
54193;SDS011;40102;50.906;6.972;2023-04-01T19:03:55;2.50;;;1.85;;
54193;SDS011;40102;50.906;6.972;2023-04-01T19:06:45;2.07;;;1.87;;
54193;SDS011;40102;50.906;6.972;2023-04-01T19:09:24;2.00;;;1.80;;
54193;SDS011;40102;50.906;6.972;2023-04-01T19:25:49;1.90;;;1.70;;
54193;SDS011;40102;50.906;6.972;2023-04-01T19:28:27;2.33;;;1.83;;
54193;SDS011;40102;50.906;6.972;2023-04-01T19:31:03;2.75;;;1.80;;
54193;SDS011;40102;50.906;6.972;2023-04-01T19:42:00;2.17;;;1.77;;
54193;SDS011;40102;50.906;6.972;2023-04-01T19:52:59;3.05;;;1.88;;
54193;SDS011;40102;50.906;6.972;2023-04-01T19:55:48;1.80;;;1.70;;
54193;SDS011;40102;50.906;6.972;2023-04-01T19:58:30;2.95;;;2.15;;
54193;SDS011;40102;50.906;6.972;2023-04-01T20:01:03;2.85;;;2.15;;
54193;SDS011;40102;50.906;6.972;2023-04-01T20:09:07;3.00;;;2.20;;
54193;SDS011;40102;50.906;6.972;2023-04-01T20:14:24;2.65;;;2.30;;
54193;SDS011;40102;50.906;6.972;2023-04-01T20:16:59;3.78;;;2.65;;
54193;SDS011;40102;50.906;6.972;2023-04-01T20:22:20;2.90;;;2.10;;
54193;SDS011;40102;50.906;6.972;2023-04-01T20:24:50;3.28;;;2.20;;
54193;SDS011;40102;50.906;6.972;2023-04-01T20:27:21;3.58;;;2.30;;
54193;SDS011;40102;50.906;6.972;2023-04-01T20:32:45;3.08;;;2.10;;
54193;SDS011;40102;50.906;6.972;2023-04-01T20:41:49;2.63;;;2.15;;
54193;SDS011;40102;50.906;6.972;2023-04-01T20:56:50;5.35;;;2.17;;
54193;SDS011;40102;50.906;6.972;2023-04-01T21:07:34;3.17;;;2.38;;
54193;SDS011;40102;50.906;6.972;2023-04-01T21:12:53;3.03;;;2.13;;
54193;SDS011;40102;50.906;6.972;2023-04-01T21:18:49;2.88;;;2.08;;
54193;SDS011;40102;50.906;6.972;2023-04-01T21:27:20;2.08;;;1.80;;
54193;SDS011;40102;50.906;6.972;2023-04-01T21:32:36;1.98;;;1.55;;
54193;SDS011;40102;50.906;6.972;2023-04-01T21:35:58;1.77;;;1.30;;
54193;SDS011;40102;50.906;6.972;2023-04-01T21:38:23;2.58;;;1.40;;
54193;SDS011;40102;50.906;6.972;2023-04-01T21:52:10;2.33;;;1.58;;
54193;SDS011;40102;50.906;6.972;2023-04-01T22:00:33;2.00;;;1.67;;
54193;SDS011;40102;50.906;6.972;2023-04-01T22:05:38;2.53;;;1.52;;
54193;SDS011;40102;50.906;6.972;2023-04-01T22:13:26;2.25;;;1.90;;
54193;SDS011;40102;50.906;6.972;2023-04-01T22:18:42;2.47;;;1.90;;
54193;SDS011;40102;50.906;6.972;2023-04-01T22:21:48;1.75;;;1.60;;
54193;SDS011;40102;50.906;6.972;2023-04-01T22:27:21;1.80;;;1.50;;
54193;SDS011;40102;50.906;6.972;2023-04-01T22:30:00;2.45;;;2.03;;
54193;SDS011;40102;50.906;6.972;2023-04-01T22:32:47;3.35;;;2.15;;
54193;SDS011;40102;50.906;6.972;2023-04-01T22:38:02;2.70;;;2.03;;
54193;SDS011;40102;50.906;6.972;2023-04-01T22:43:45;2.55;;;1.70;;
54193;SDS011;40102;50.906;6.972;2023-04-01T22:46:19;3.05;;;1.58;;
54193;SDS011;40102;50.906;6.972;2023-04-01T22:48:47;4.53;;;2.22;;
54193;SDS011;40102;50.906;6.972;2023-04-01T22:51:21;3.03;;;2.40;;
54193;SDS011;40102;50.906;6.972;2023-04-01T22:56:35;2.83;;;1.80;;
54193;SDS011;40102;50.906;6.972;2023-04-01T22:59:13;3.00;;;2.25;;
54193;SDS011;40102;50.906;6.972;2023-04-01T23:01:51;3.00;;;2.15;;
54193;SDS011;40102;50.906;6.972;2023-04-01T23:04:24;2.63;;;1.80;;
54193;SDS011;40102;50.906;6.972;2023-04-01T23:07:04;3.25;;;2.22;;
54193;SDS011;40102;50.906;6.972;2023-04-01T23:09:45;3.58;;;1.80;;
54193;SDS011;40102;50.906;6.972;2023-04-01T23:12:13;1.98;;;1.73;;
54193;SDS011;40102;50.906;6.972;2023-04-01T23:19:57;3.65;;;2.10;;
54193;SDS011;40102;50.906;6.972;2023-04-01T23:22:36;3.80;;;1.92;;
54193;SDS011;40102;50.906;6.972;2023-04-01T23:33:19;3.28;;;2.20;;
54193;SDS011;40102;50.906;6.972;2023-04-01T23:36:01;3.55;;;2.40;;
54193;SDS011;40102;50.906;6.972;2023-04-01T23:38:37;3.22;;;2.42;;
54193;SDS011;40102;50.906;6.972;2023-04-01T23:41:06;6.18;;;3.10;;
54193;SDS011;40102;50.906;6.972;2023-04-01T23:43:42;4.20;;;2.65;;
54193;SDS011;40102;50.906;6.972;2023-04-01T23:46:10;3.40;;;2.47;;
54193;SDS011;40102;50.906;6.972;2023-04-01T23:48:39;5.45;;;3.10;;
54193;SDS011;40102;50.906;6.972;2023-04-01T23:51:12;4.32;;;2.70;;
54193;SDS011;40102;50.906;6.972;2023-04-01T23:53:46;4.18;;;2.50;;
54193;SDS011;40102;50.906;6.972;2023-04-01T23:56:16;3.42;;;2.40;;
54193;SDS011;40102;50.906;6.972;2023-04-01T23:58:44;2.70;;;1.75;;
